sensor_id;sensor_type;location;lat;lon;timestamp;pressure;altitude;pressure_sealevel;temperature;humidity
31044;BME280;17710;52.520;13.352;2022-09-11T00:00:51;100952.06;;;20.77;59.97
31044;BME280;17710;52.520;13.352;2022-09-11T00:03:18;100958.91;;;20.34;61.33
31044;BME280;17710;52.520;13.352;2022-09-11T00:05:45;100960.81;;;20.19;61.56
31044;BME280;17710;52.520;13.352;2022-09-11T00:08:15;100953.53;;;20.21;61.76
31044;BME280;17710;52.520;13.352;2022-09-11T00:10:43;100962.56;;;20.07;62.14
31044;BME280;17710;52.520;13.352;2022-09-11T00:13:13;100963.56;;;19.94;62.58
31044;BME280;17710;52.520;13.352;2022-09-11T00:15:41;100966.56;;;20.02;62.67
31044;BME280;17710;52.520;13.352;2022-09-11T00:18:10;100970.16;;;20.26;61.61
31044;BME280;17710;52.520;13.352;2022-09-11T00:20:46;100967.91;;;20.33;61.18
31044;BME280;17710;52.520;13.352;2022-09-11T00:23:16;100963.53;;;20.55;60.40
31044;BME280;17710;52.520;13.352;2022-09-11T00:25:46;100967.88;;;20.69;59.82
31044;BME280;17710;52.520;13.352;2022-09-11T00:28:14;100965.34;;;20.55;60.12
31044;BME280;17710;52.520;13.352;2022-09-11T00:30:41;100968.50;;;20.49;60.62
31044;BME280;17710;52.520;13.352;2022-09-11T00:33:09;100957.75;;;20.49;60.75
31044;BME280;17710;52.520;13.352;2022-09-11T00:35:36;100962.25;;;20.61;60.21
31044;BME280;17710;52.520;13.352;2022-09-11T00:38:05;100969.72;;;20.68;59.65
31044;BME280;17710;52.520;13.352;2022-09-11T00:40:43;100966.34;;;20.54;60.26
31044;BME280;17710;52.520;13.352;2022-09-11T00:43:12;100965.00;;;20.72;59.31
31044;BME280;17710;52.520;13.352;2022-09-11T00:45:41;100968.44;;;20.74;59.35
31044;BME280;17710;52.520;13.352;2022-09-11T00:48:10;100966.25;;;20.43;60.25
31044;BME280;17710;52.520;13.352;2022-09-11T00:50:41;100961.44;;;20.48;60.06
31044;BME280;17710;52.520;13.352;2022-09-11T00:53:09;100966.16;;;20.44;60.33
31044;BME280;17710;52.520;13.352;2022-09-11T00:55:43;100965.78;;;20.12;61.60
31044;BME280;17710;52.520;13.352;2022-09-11T00:58:17;100964.44;;;20.43;60.29
31044;BME280;17710;52.520;13.352;2022-09-11T01:00:44;100960.75;;;20.57;59.96
31044;BME280;17710;52.520;13.352;2022-09-11T01:03:11;100967.31;;;20.53;60.04
31044;BME280;17710;52.520;13.352;2022-09-11T01:05:39;100962.31;;;20.72;59.25
31044;BME280;17710;52.520;13.352;2022-09-11T01:08:06;100968.66;;;20.35;60.18
31044;BME280;17710;52.520;13.352;2022-09-11T01:10:38;100970.47;;;20.09;61.28
31044;BME280;17710;52.520;13.352;2022-09-11T01:13:15;100970.75;;;19.80;62.66
31044;BME280;17710;52.520;13.352;2022-09-11T01:15:51;100977.25;;;19.89;62.10
31044;BME280;17710;52.520;13.352;2022-09-11T01:18:30;100973.72;;;19.76;62.44
31044;BME280;17710;52.520;13.352;2022-09-11T01:21:10;100982.44;;;19.67;62.95
31044;BME280;17710;52.520;13.352;2022-09-11T01:24:15;100985.63;;;19.59;63.08
31044;BME280;17710;52.520;13.352;2022-09-11T01:26:57;100979.75;;;19.92;61.77
31044;BME280;17710;52.520;13.352;2022-09-11T01:29:33;100976.47;;;20.25;60.85
31044;BME280;17710;52.520;13.352;2022-09-11T01:32:09;100982.84;;;19.99;61.38
31044;BME280;17710;52.520;13.352;2022-09-11T01:34:48;100972.66;;;20.04;61.32
31044;BME280;17710;52.520;13.352;2022-09-11T01:37:21;100976.28;;;20.28;60.00
31044;BME280;17710;52.520;13.352;2022-09-11T01:40:01;100980.22;;;20.35;59.98
31044;BME280;17710;52.520;13.352;2022-09-11T01:42:28;100981.22;;;20.34;60.04
31044;BME280;17710;52.520;13.352;2022-09-11T01:45:00;100983.47;;;20.27;60.15
31044;BME280;17710;52.520;13.352;2022-09-11T01:47:29;100978.38;;;20.48;59.57
31044;BME280;17710;52.520;13.352;2022-09-11T01:50:03;100983.56;;;20.39;59.66
31044;BME280;17710;52.520;13.352;2022-09-11T01:52:34;100985.16;;;20.28;60.03
31044;BME280;17710;52.520;13.352;2022-09-11T01:55:11;100981.63;;;20.28;59.95
31044;BME280;17710;52.520;13.352;2022-09-11T01:57:41;100984.03;;;20.07;60.71
31044;BME280;17710;52.520;13.352;2022-09-11T02:00:13;100982.16;;;20.46;59.64
31044;BME280;17710;52.520;13.352;2022-09-11T02:02:46;100989.56;;;20.29;60.12
31044;BME280;17710;52.520;13.352;2022-09-11T02:05:15;100986.88;;;20.42;59.57
31044;BME280;17710;52.520;13.352;2022-09-11T02:07:45;100981.81;;;20.50;58.88
31044;BME280;17710;52.520;13.352;2022-09-11T02:10:19;100979.69;;;20.30;59.68
31044;BME280;17710;52.520;13.352;2022-09-11T02:12:51;100979.28;;;20.36;59.70
31044;BME280;17710;52.520;13.352;2022-09-11T02:15:25;100978.19;;;20.26;59.73
31044;BME280;17710;52.520;13.352;2022-09-11T02:18:01;100982.25;;;20.32;59.46
31044;BME280;17710;52.520;13.352;2022-09-11T02:20:28;100985.06;;;20.43;59.03
31044;BME280;17710;52.520;13.352;2022-09-11T02:23:00;100987.22;;;20.38;59.34
31044;BME280;17710;52.520;13.352;2022-09-11T02:25:27;100981.31;;;20.20;59.72
31044;BME280;17710;52.520;13.352;2022-09-11T02:27:53;100986.81;;;20.06;60.20
31044;BME280;17710;52.520;13.352;2022-09-11T02:30:20;100995.16;;;20.26;59.42
31044;BME280;17710;52.520;13.352;2022-09-11T02:32:47;100980.44;;;20.32;59.11
31044;BME280;17710;52.520;13.352;2022-09-11T02:35:17;100989.78;;;20.39;58.94
31044;BME280;17710;52.520;13.352;2022-09-11T02:37:48;100997.59;;;20.42;58.98
31044;BME280;17710;52.520;13.352;2022-09-11T02:40:26;101000.00;;;20.34;59.30
31044;BME280;17710;52.520;13.352;2022-09-11T02:43:14;100998.19;;;20.35;59.03
31044;BME280;17710;52.520;13.352;2022-09-11T02:45:51;101005.88;;;20.26;59.21
31044;BME280;17710;52.520;13.352;2022-09-11T02:48:35;100999.44;;;20.16;59.22
31044;BME280;17710;52.520;13.352;2022-09-11T02:51:14;101001.50;;;20.25;58.95
31044;BME280;17710;52.520;13.352;2022-09-11T02:53:48;101003.34;;;20.12;59.61
31044;BME280;17710;52.520;13.352;2022-09-11T02:56:23;101012.56;;;19.96;60.23
31044;BME280;17710;52.520;13.352;2022-09-11T02:58:53;101010.53;;;19.99;59.96
31044;BME280;17710;52.520;13.352;2022-09-11T03:01:20;101015.34;;;20.07;59.46
31044;BME280;17710;52.520;13.352;2022-09-11T03:03:49;101017.72;;;20.11;59.41
31044;BME280;17710;52.520;13.352;2022-09-11T03:06:17;101018.25;;;20.04;59.67
31044;BME280;17710;52.520;13.352;2022-09-11T03:08:46;101017.50;;;20.14;59.46
31044;BME280;17710;52.520;13.352;2022-09-11T03:11:12;101010.84;;;20.20;59.20
31044;BME280;17710;52.520;13.352;2022-09-11T03:13:42;101014.81;;;20.27;58.99
31044;BME280;17710;52.520;13.352;2022-09-11T03:16:09;101015.88;;;20.24;58.62
31044;BME280;17710;52.520;13.352;2022-09-11T03:18:36;101020.91;;;20.16;59.06
31044;BME280;17710;52.520;13.352;2022-09-11T03:21:04;101021.13;;;20.26;58.57
31044;BME280;17710;52.520;13.352;2022-09-11T03:23:31;101031.09;;;20.24;58.40
31044;BME280;17710;52.520;13.352;2022-09-11T03:25:59;101024.78;;;20.38;58.34
31044;BME280;17710;52.520;13.352;2022-09-11T03:28:25;101036.81;;;20.45;58.02
31044;BME280;17710;52.520;13.352;2022-09-11T03:30:52;101029.69;;;20.31;58.15
31044;BME280;17710;52.520;13.352;2022-09-11T03:33:18;101045.41;;;20.12;58.21
31044;BME280;17710;52.520;13.352;2022-09-11T03:35:45;101042.47;;;20.02;58.37
31044;BME280;17710;52.520;13.352;2022-09-11T03:38:13;101040.91;;;20.00;58.84
31044;BME280;17710;52.520;13.352;2022-09-11T03:40:41;101038.97;;;20.02;58.97
31044;BME280;17710;52.520;13.352;2022-09-11T03:43:11;101046.69;;;19.94;58.99
31044;BME280;17710;52.520;13.352;2022-09-11T03:45:37;101061.03;;;19.67;59.57
31044;BME280;17710;52.520;13.352;2022-09-11T03:48:17;101065.44;;;19.68;59.69
31044;BME280;17710;52.520;13.352;2022-09-11T03:50:47;101058.84;;;19.47;60.44
31044;BME280;17710;52.520;13.352;2022-09-11T03:53:14;101067.47;;;19.38;60.74
31044;BME280;17710;52.520;13.352;2022-09-11T03:55:44;101078.53;;;19.19;61.15
31044;BME280;17710;52.520;13.352;2022-09-11T03:58:10;101070.13;;;19.38;60.84
31044;BME280;17710;52.520;13.352;2022-09-11T04:00:39;101070.81;;;19.68;59.61
31044;BME280;17710;52.520;13.352;2022-09-11T04:03:07;101076.69;;;19.34;60.62
31044;BME280;17710;52.520;13.352;2022-09-11T04:05:34;101071.75;;;19.40;60.19
31044;BME280;17710;52.520;13.352;2022-09-11T04:08:01;101074.63;;;19.37;60.40
31044;BME280;17710;52.520;13.352;2022-09-11T04:10:32;101078.75;;;19.16;60.79
31044;BME280;17710;52.520;13.352;2022-09-11T04:12:59;101077.31;;;19.37;60.82
31044;BME280;17710;52.520;13.352;2022-09-11T04:15:25;101086.59;;;19.46;60.63
31044;BME280;17710;52.520;13.352;2022-09-11T04:17:52;101084.06;;;19.70;60.06
31044;BME280;17710;52.520;13.352;2022-09-11T04:20:18;101073.97;;;19.48;60.98
31044;BME280;17710;52.520;13.352;2022-09-11T04:22:45;101087.03;;;19.92;59.61
31044;BME280;17710;52.520;13.352;2022-09-11T04:25:12;101084.66;;;19.75;60.31
31044;BME280;17710;52.520;13.352;2022-09-11T04:27:39;101075.84;;;19.85;60.04
31044;BME280;17710;52.520;13.352;2022-09-11T04:30:07;101083.13;;;19.71;60.47
31044;BME280;17710;52.520;13.352;2022-09-11T04:32:33;101075.53;;;19.90;60.06
31044;BME280;17710;52.520;13.352;2022-09-11T04:35:01;101086.25;;;19.24;62.37
31044;BME280;17710;52.520;13.352;2022-09-11T04:37:28;101087.38;;;19.48;61.54
31044;BME280;17710;52.520;13.352;2022-09-11T04:39:56;101090.31;;;19.43;62.06
31044;BME280;17710;52.520;13.352;2022-09-11T04:42:24;101090.44;;;19.69;61.34
31044;BME280;17710;52.520;13.352;2022-09-11T04:44:52;101088.75;;;19.93;60.22
31044;BME280;17710;52.520;13.352;2022-09-11T04:47:18;101089.56;;;19.41;61.78
31044;BME280;17710;52.520;13.352;2022-09-11T04:49:45;101089.63;;;19.27;62.58
31044;BME280;17710;52.520;13.352;2022-09-11T04:52:11;101089.28;;;19.05;63.59
31044;BME280;17710;52.520;13.352;2022-09-11T04:54:40;101094.19;;;18.98;63.88
31044;BME280;17710;52.520;13.352;2022-09-11T04:57:08;101093.22;;;18.58;65.27
31044;BME280;17710;52.520;13.352;2022-09-11T04:59:35;101090.97;;;18.93;64.38
31044;BME280;17710;52.520;13.352;2022-09-11T05:02:03;101084.00;;;19.18;63.57
31044;BME280;17710;52.520;13.352;2022-09-11T05:04:29;101089.41;;;19.30;62.83
31044;BME280;17710;52.520;13.352;2022-09-11T05:06:55;101087.06;;;19.65;61.90
31044;BME280;17710;52.520;13.352;2022-09-11T05:09:22;101085.81;;;19.44;62.71
31044;BME280;17710;52.520;13.352;2022-09-11T05:11:48;101085.72;;;19.45;62.65
31044;BME280;17710;52.520;13.352;2022-09-11T05:14:14;101094.03;;;19.55;62.63
31044;BME280;17710;52.520;13.352;2022-09-11T05:16:42;101099.41;;;19.55;62.75
31044;BME280;17710;52.520;13.352;2022-09-11T05:19:15;101096.41;;;19.60;62.12
31044;BME280;17710;52.520;13.352;2022-09-11T05:21:41;101101.03;;;19.83;61.83
31044;BME280;17710;52.520;13.352;2022-09-11T05:24:08;101096.69;;;19.95;61.42
31044;BME280;17710;52.520;13.352;2022-09-11T05:26:39;101102.84;;;19.70;62.51
31044;BME280;17710;52.520;13.352;2022-09-11T05:29:07;101100.88;;;19.99;60.99
31044;BME280;17710;52.520;13.352;2022-09-11T05:31:39;101101.53;;;20.27;60.15
31044;BME280;17710;52.520;13.352;2022-09-11T05:34:06;101107.03;;;20.39;59.98
31044;BME280;17710;52.520;13.352;2022-09-11T05:36:34;101119.19;;;19.92;61.50
31044;BME280;17710;52.520;13.352;2022-09-11T05:39:01;101118.81;;;20.36;60.42
31044;BME280;17710;52.520;13.352;2022-09-11T05:41:30;101122.00;;;20.28;60.03
31044;BME280;17710;52.520;13.352;2022-09-11T05:43:57;101127.97;;;20.34;60.16
31044;BME280;17710;52.520;13.352;2022-09-11T05:46:26;101134.28;;;20.33;60.07
31044;BME280;17710;52.520;13.352;2022-09-11T05:48:52;101147.38;;;20.50;59.84
31044;BME280;17710;52.520;13.352;2022-09-11T05:51:19;101146.94;;;20.43;60.16
31044;BME280;17710;52.520;13.352;2022-09-11T05:53:55;101146.50;;;20.49;59.93
31044;BME280;17710;52.520;13.352;2022-09-11T05:56:23;101153.47;;;20.26;60.90
31044;BME280;17710;52.520;13.352;2022-09-11T05:58:50;101154.78;;;20.59;59.92
31044;BME280;17710;52.520;13.352;2022-09-11T06:01:18;101167.03;;;20.50;60.18
31044;BME280;17710;52.520;13.352;2022-09-11T06:03:45;101171.97;;;20.56;59.99
31044;BME280;17710;52.520;13.352;2022-09-11T06:06:15;101173.75;;;20.18;61.07
31044;BME280;17710;52.520;13.352;2022-09-11T06:08:42;101177.81;;;20.11;61.33
31044;BME280;17710;52.520;13.352;2022-09-11T06:11:11;101178.97;;;20.34;60.64
31044;BME280;17710;52.520;13.352;2022-09-11T06:13:39;101179.38;;;20.53;60.35
31044;BME280;17710;52.520;13.352;2022-09-11T06:16:09;101183.56;;;20.44;60.16
31044;BME280;17710;52.520;13.352;2022-09-11T06:18:36;101179.13;;;20.81;59.25
31044;BME280;17710;52.520;13.352;2022-09-11T06:21:05;101183.75;;;21.04;58.65
31044;BME280;17710;52.520;13.352;2022-09-11T06:23:32;101183.03;;;20.52;60.02
31044;BME280;17710;52.520;13.352;2022-09-11T06:26:03;101193.09;;;20.36;60.63
31044;BME280;17710;52.520;13.352;2022-09-11T06:28:31;101195.38;;;20.02;62.20
31044;BME280;17710;52.520;13.352;2022-09-11T06:31:00;101196.03;;;19.93;62.26
31044;BME280;17710;52.520;13.352;2022-09-11T06:33:30;101200.44;;;19.94;62.36
31044;BME280;17710;52.520;13.352;2022-09-11T06:35:57;101203.59;;;20.13;61.90
31044;BME280;17710;52.520;13.352;2022-09-11T06:38:23;101206.81;;;20.31;61.29
31044;BME280;17710;52.520;13.352;2022-09-11T06:40:53;101195.00;;;20.21;61.14
31044;BME280;17710;52.520;13.352;2022-09-11T06:43:22;101211.59;;;20.40;60.78
31044;BME280;17710;52.520;13.352;2022-09-11T06:45:50;101205.81;;;20.72;59.80
31044;BME280;17710;52.520;13.352;2022-09-11T06:48:17;101207.94;;;20.92;58.70
31044;BME280;17710;52.520;13.352;2022-09-11T06:50:44;101215.88;;;21.06;58.51
31044;BME280;17710;52.520;13.352;2022-09-11T06:53:11;101214.91;;;21.20;58.04
31044;BME280;17710;52.520;13.352;2022-09-11T06:55:39;101206.28;;;21.15;57.53
31044;BME280;17710;52.520;13.352;2022-09-11T06:58:05;101204.16;;;21.20;57.90
31044;BME280;17710;52.520;13.352;2022-09-11T07:00:35;101209.41;;;21.08;57.63
31044;BME280;17710;52.520;13.352;2022-09-11T07:03:09;101209.91;;;21.39;56.88
31044;BME280;17710;52.520;13.352;2022-09-11T07:05:35;101207.53;;;21.34;56.65
31044;BME280;17710;52.520;13.352;2022-09-11T07:08:01;101217.13;;;21.38;56.97
31044;BME280;17710;52.520;13.352;2022-09-11T07:10:31;101217.38;;;21.23;57.05
31044;BME280;17710;52.520;13.352;2022-09-11T07:12:58;101211.66;;;21.15;56.95
31044;BME280;17710;52.520;13.352;2022-09-11T07:15:24;101215.19;;;21.28;56.94
31044;BME280;17710;52.520;13.352;2022-09-11T07:17:51;101208.84;;;21.29;56.40
31044;BME280;17710;52.520;13.352;2022-09-11T07:20:20;101214.09;;;21.43;56.13
31044;BME280;17710;52.520;13.352;2022-09-11T07:22:47;101225.44;;;21.59;55.86
31044;BME280;17710;52.520;13.352;2022-09-11T07:25:14;101218.28;;;21.71;55.53
31044;BME280;17710;52.520;13.352;2022-09-11T07:27:46;101214.22;;;21.65;55.60
31044;BME280;17710;52.520;13.352;2022-09-11T07:30:14;101210.72;;;22.00;54.48
31044;BME280;17710;52.520;13.352;2022-09-11T07:32:42;101215.03;;;21.78;54.64
31044;BME280;17710;52.520;13.352;2022-09-11T07:35:09;101217.19;;;21.73;55.21
31044;BME280;17710;52.520;13.352;2022-09-11T07:37:36;101213.19;;;21.55;55.53
31044;BME280;17710;52.520;13.352;2022-09-11T07:40:04;101221.13;;;21.20;56.80
31044;BME280;17710;52.520;13.352;2022-09-11T07:42:30;101213.06;;;21.57;55.68
31044;BME280;17710;52.520;13.352;2022-09-11T07:44:58;101224.31;;;21.98;55.16
31044;BME280;17710;52.520;13.352;2022-09-11T07:47:24;101218.63;;;21.90;55.07
31044;BME280;17710;52.520;13.352;2022-09-11T07:49:50;101213.38;;;22.70;53.20
31044;BME280;17710;52.520;13.352;2022-09-11T07:52:17;101218.44;;;22.28;53.68
31044;BME280;17710;52.520;13.352;2022-09-11T07:54:54;101224.47;;;22.54;53.23
31044;BME280;17710;52.520;13.352;2022-09-11T07:57:25;101226.00;;;22.23;54.09
31044;BME280;17710;52.520;13.352;2022-09-11T07:59:54;101224.34;;;22.44;53.24
31044;BME280;17710;52.520;13.352;2022-09-11T08:02:23;101221.03;;;22.06;54.61
31044;BME280;17710;52.520;13.352;2022-09-11T08:04:50;101235.91;;;22.57;53.36
31044;BME280;17710;52.520;13.352;2022-09-11T08:07:23;101233.81;;;22.61;52.84
31044;BME280;17710;52.520;13.352;2022-09-11T08:10:05;101229.94;;;22.87;52.44
31044;BME280;17710;52.520;13.352;2022-09-11T08:12:37;101240.72;;;22.76;52.21
31044;BME280;17710;52.520;13.352;2022-09-11T08:15:15;101242.56;;;23.31;50.95
31044;BME280;17710;52.520;13.352;2022-09-11T08:17:45;101243.53;;;23.30;51.06
31044;BME280;17710;52.520;13.352;2022-09-11T08:20:20;101245.34;;;23.74;50.23
31044;BME280;17710;52.520;13.352;2022-09-11T08:22:47;101240.25;;;22.93;51.65
31044;BME280;17710;52.520;13.352;2022-09-11T08:25:13;101246.13;;;22.41;53.29
31044;BME280;17710;52.520;13.352;2022-09-11T08:27:42;101249.22;;;23.16;51.75
31044;BME280;17710;52.520;13.352;2022-09-11T08:30:10;101260.72;;;23.52;50.48
31044;BME280;17710;52.520;13.352;2022-09-11T08:32:37;101256.22;;;22.61;52.00
31044;BME280;17710;52.520;13.352;2022-09-11T08:35:05;101261.69;;;22.95;52.04
31044;BME280;17710;52.520;13.352;2022-09-11T08:37:38;101260.44;;;22.77;52.16
31044;BME280;17710;52.520;13.352;2022-09-11T08:40:08;101266.81;;;22.87;52.02
31044;BME280;17710;52.520;13.352;2022-09-11T08:42:38;101270.84;;;22.92;51.74
31044;BME280;17710;52.520;13.352;2022-09-11T08:45:13;101267.31;;;22.92;52.05
31044;BME280;17710;52.520;13.352;2022-09-11T08:47:55;101267.47;;;22.55;53.05
31044;BME280;17710;52.520;13.352;2022-09-11T08:50:25;101268.44;;;22.89;52.12
31044;BME280;17710;52.520;13.352;2022-09-11T08:53:01;101266.31;;;23.04;51.72
31044;BME280;17710;52.520;13.352;2022-09-11T08:55:33;101274.91;;;23.31;50.67
31044;BME280;17710;52.520;13.352;2022-09-11T08:58:10;101275.88;;;23.30;50.99
31044;BME280;17710;52.520;13.352;2022-09-11T09:00:53;101272.47;;;22.95;51.55
31044;BME280;17710;52.520;13.352;2022-09-11T09:03:35;101272.47;;;23.17;51.25
31044;BME280;17710;52.520;13.352;2022-09-11T09:06:37;101274.44;;;23.15;50.85
31044;BME280;17710;52.520;13.352;2022-09-11T09:09:19;101271.97;;;23.34;50.60
31044;BME280;17710;52.520;13.352;2022-09-11T09:12:02;101272.00;;;23.23;50.44
31044;BME280;17710;52.520;13.352;2022-09-11T09:15:02;101271.13;;;23.23;50.60
31044;BME280;17710;52.520;13.352;2022-09-11T09:17:41;101277.00;;;23.39;50.61
31044;BME280;17710;52.520;13.352;2022-09-11T09:20:17;101279.69;;;23.50;50.54
31044;BME280;17710;52.520;13.352;2022-09-11T09:22:51;101282.53;;;23.15;51.08
31044;BME280;17710;52.520;13.352;2022-09-11T09:25:34;101281.53;;;23.27;50.97
31044;BME280;17710;52.520;13.352;2022-09-11T09:28:06;101293.53;;;23.45;50.67
31044;BME280;17710;52.520;13.352;2022-09-11T09:30:41;101279.56;;;23.18;50.82
31044;BME280;17710;52.520;13.352;2022-09-11T09:33:20;101289.50;;;23.51;50.04
31044;BME280;17710;52.520;13.352;2022-09-11T09:36:13;101285.47;;;23.57;50.07
31044;BME280;17710;52.520;13.352;2022-09-11T09:38:47;101285.38;;;24.01;48.72
31044;BME280;17710;52.520;13.352;2022-09-11T09:41:33;101283.03;;;24.08;48.29
31044;BME280;17710;52.520;13.352;2022-09-11T09:44:13;101286.81;;;24.05;48.40
31044;BME280;17710;52.520;13.352;2022-09-11T09:46:53;101274.09;;;24.60;47.30
31044;BME280;17710;52.520;13.352;2022-09-11T09:49:35;101279.09;;;24.44;47.31
31044;BME280;17710;52.520;13.352;2022-09-11T09:52:14;101281.66;;;24.66;46.47
31044;BME280;17710;52.520;13.352;2022-09-11T09:54:42;101279.03;;;24.96;45.77
31044;BME280;17710;52.520;13.352;2022-09-11T09:57:17;101285.88;;;24.59;46.24
31044;BME280;17710;52.520;13.352;2022-09-11T09:59:48;101289.41;;;24.07;47.33
31044;BME280;17710;52.520;13.352;2022-09-11T10:02:34;101287.50;;;23.87;48.32
31044;BME280;17710;52.520;13.352;2022-09-11T10:05:15;101291.53;;;23.92;48.94
31044;BME280;17710;52.520;13.352;2022-09-11T10:07:46;101299.19;;;23.65;49.25
31044;BME280;17710;52.520;13.352;2022-09-11T10:10:23;101292.97;;;23.96;48.92
31044;BME280;17710;52.520;13.352;2022-09-11T10:12:51;101301.22;;;24.38;48.07
31044;BME280;17710;52.520;13.352;2022-09-11T10:15:19;101293.38;;;24.55;47.19
31044;BME280;17710;52.520;13.352;2022-09-11T10:17:48;101302.50;;;24.22;48.04
31044;BME280;17710;52.520;13.352;2022-09-11T10:20:23;101301.66;;;24.43;47.06
31044;BME280;17710;52.520;13.352;2022-09-11T10:22:53;101298.84;;;24.12;48.43
31044;BME280;17710;52.520;13.352;2022-09-11T10:25:21;101302.38;;;24.13;47.56
31044;BME280;17710;52.520;13.352;2022-09-11T10:28:01;101295.63;;;23.75;48.33
31044;BME280;17710;52.520;13.352;2022-09-11T10:30:35;101301.38;;;24.25;47.35
31044;BME280;17710;52.520;13.352;2022-09-11T10:33:05;101291.91;;;24.31;46.94
31044;BME280;17710;52.520;13.352;2022-09-11T10:35:48;101298.13;;;24.63;46.33
31044;BME280;17710;52.520;13.352;2022-09-11T10:38:28;101293.00;;;24.81;46.06
31044;BME280;17710;52.520;13.352;2022-09-11T10:41:00;101306.28;;;25.14;45.75
31044;BME280;17710;52.520;13.352;2022-09-11T10:43:34;101301.38;;;25.29;44.73
31044;BME280;17710;52.520;13.352;2022-09-11T10:46:20;101300.84;;;25.35;44.15
31044;BME280;17710;52.520;13.352;2022-09-11T10:48:51;101311.13;;;25.41;43.67
31044;BME280;17710;52.520;13.352;2022-09-11T10:51:21;101319.94;;;25.33;43.44
31044;BME280;17710;52.520;13.352;2022-09-11T10:54:13;101313.13;;;25.39;42.95
31044;BME280;17710;52.520;13.352;2022-09-11T10:56:58;101301.25;;;24.79;43.76
31044;BME280;17710;52.520;13.352;2022-09-11T10:59:38;101313.03;;;24.78;44.07
31044;BME280;17710;52.520;13.352;2022-09-11T11:02:16;101310.59;;;24.22;45.95
31044;BME280;17710;52.520;13.352;2022-09-11T11:04:52;101312.56;;;24.09;46.36
31044;BME280;17710;52.520;13.352;2022-09-11T11:07:33;101321.28;;;23.59;48.49
31044;BME280;17710;52.520;13.352;2022-09-11T11:10:16;101312.06;;;23.50;50.02
31044;BME280;17710;52.520;13.352;2022-09-11T11:12:59;101317.38;;;23.63;49.80
31044;BME280;17710;52.520;13.352;2022-09-11T11:15:42;101321.25;;;23.70;50.18
31044;BME280;17710;52.520;13.352;2022-09-11T11:18:21;101319.28;;;23.72;50.46
31044;BME280;17710;52.520;13.352;2022-09-11T11:21:05;101311.47;;;23.58;50.30
31044;BME280;17710;52.520;13.352;2022-09-11T11:23:51;101316.34;;;23.75;50.05
31044;BME280;17710;52.520;13.352;2022-09-11T11:26:43;101316.94;;;23.78;50.16
31044;BME280;17710;52.520;13.352;2022-09-11T11:29:29;101319.91;;;24.18;48.89
31044;BME280;17710;52.520;13.352;2022-09-11T11:32:22;101319.31;;;24.79;47.00
31044;BME280;17710;52.520;13.352;2022-09-11T11:35:19;101322.63;;;24.50;47.35
31044;BME280;17710;52.520;13.352;2022-09-11T11:37:47;101319.03;;;24.29;47.44
31044;BME280;17710;52.520;13.352;2022-09-11T11:40:21;101312.94;;;25.00;46.78
31044;BME280;17710;52.520;13.352;2022-09-11T11:43:05;101304.28;;;25.07;46.36
31044;BME280;17710;52.520;13.352;2022-09-11T11:45:44;101310.78;;;24.83;46.83
31044;BME280;17710;52.520;13.352;2022-09-11T11:48:14;101309.72;;;25.16;44.43
31044;BME280;17710;52.520;13.352;2022-09-11T11:50:47;101309.03;;;24.73;43.32
31044;BME280;17710;52.520;13.352;2022-09-11T11:53:19;101314.72;;;24.90;43.78
31044;BME280;17710;52.520;13.352;2022-09-11T11:56:16;101314.63;;;25.01;42.58
31044;BME280;17710;52.520;13.352;2022-09-11T11:58:59;101311.81;;;25.33;42.46
31044;BME280;17710;52.520;13.352;2022-09-11T12:01:38;101300.34;;;25.51;41.39
31044;BME280;17710;52.520;13.352;2022-09-11T12:04:15;101313.47;;;25.25;42.55
31044;BME280;17710;52.520;13.352;2022-09-11T12:06:43;101317.41;;;25.82;41.96
31044;BME280;17710;52.520;13.352;2022-09-11T12:09:18;101323.44;;;25.24;43.17
31044;BME280;17710;52.520;13.352;2022-09-11T12:11:49;101317.88;;;24.95;44.28
31044;BME280;17710;52.520;13.352;2022-09-11T12:14:27;101312.97;;;25.10;44.36
31044;BME280;17710;52.520;13.352;2022-09-11T12:16:56;101313.25;;;25.07;44.80
31044;BME280;17710;52.520;13.352;2022-09-11T12:19:23;101309.81;;;24.63;45.08
31044;BME280;17710;52.520;13.352;2022-09-11T12:22:10;101317.66;;;24.87;45.14
31044;BME280;17710;52.520;13.352;2022-09-11T12:24:56;101315.81;;;25.09;44.62
31044;BME280;17710;52.520;13.352;2022-09-11T12:27:50;101315.47;;;25.02;44.43
31044;BME280;17710;52.520;13.352;2022-09-11T12:30:27;101324.38;;;24.72;44.65
31044;BME280;17710;52.520;13.352;2022-09-11T12:32:55;101317.88;;;25.56;43.33
31044;BME280;17710;52.520;13.352;2022-09-11T12:35:33;101321.44;;;25.57;42.89
31044;BME280;17710;52.520;13.352;2022-09-11T12:38:18;101324.97;;;25.17;43.08
31044;BME280;17710;52.520;13.352;2022-09-11T12:40:50;101327.81;;;25.46;42.26
31044;BME280;17710;52.520;13.352;2022-09-11T12:43:44;101326.41;;;25.21;42.27
31044;BME280;17710;52.520;13.352;2022-09-11T12:49:26;101332.06;;;25.39;41.65
31044;BME280;17710;52.520;13.352;2022-09-11T12:51:53;101327.28;;;25.01;41.83
31044;BME280;17710;52.520;13.352;2022-09-11T12:54:28;101326.16;;;25.24;41.72
31044;BME280;17710;52.520;13.352;2022-09-11T12:57:00;101319.41;;;25.39;41.44
31044;BME280;17710;52.520;13.352;2022-09-11T12:59:33;101319.41;;;25.39;41.38
31044;BME280;17710;52.520;13.352;2022-09-11T13:02:22;101322.22;;;25.38;41.54
31044;BME280;17710;52.520;13.352;2022-09-11T13:04:55;101323.88;;;25.29;42.16
31044;BME280;17710;52.520;13.352;2022-09-11T13:07:26;101323.38;;;25.75;41.99
31044;BME280;17710;52.520;13.352;2022-09-11T13:10:05;101310.16;;;25.72;41.40